createdAt,value
2017-08-03T00:01:04.930Z,24.17
2017-08-03T00:03:32.982Z,20.27
2017-08-03T00:06:01.058Z,22.90
2017-08-03T00:08:29.130Z,24.20
2017-08-03T00:10:57.192Z,23.30
2017-08-03T00:13:25.257Z,21.93
2017-08-03T00:15:53.320Z,22.47
2017-08-03T00:18:21.403Z,22.17
2017-08-03T00:20:49.487Z,22.30
2017-08-03T00:23:17.542Z,23.97
2017-08-03T00:25:45.617Z,24.10
2017-08-03T00:28:13.682Z,24.67
2017-08-03T00:30:41.791Z,23.67
2017-08-03T00:33:09.854Z,24.87
2017-08-03T00:35:37.927Z,24.90
2017-08-03T00:38:06.002Z,23.47
2017-08-03T00:40:34.076Z,23.70
2017-08-03T00:43:02.152Z,24.00
2017-08-03T00:45:30.984Z,24.30
2017-08-03T00:47:59.051Z,24.83
2017-08-03T00:50:27.123Z,25.30
2017-08-03T00:52:55.191Z,24.23
2017-08-03T00:55:23.280Z,24.90
2017-08-03T00:57:51.334Z,24.40
2017-08-03T01:00:19.413Z,21.47
2017-08-03T01:02:47.481Z,23.47
2017-08-03T01:05:15.603Z,21.73
2017-08-03T01:07:43.658Z,21.20
2017-08-03T01:10:11.742Z,21.87
2017-08-03T01:12:39.814Z,24.20
2017-08-03T01:15:07.883Z,24.80
2017-08-03T01:17:35.971Z,27.03
2017-08-03T01:20:04.800Z,25.10
2017-08-03T01:22:32.879Z,25.07
2017-08-03T01:25:00.957Z,25.73
2017-08-03T01:27:29.011Z,25.57
2017-08-03T01:29:57.075Z,25.17
2017-08-03T01:32:25.151Z,28.03
2017-08-03T01:34:53.218Z,23.83
2017-08-03T01:37:21.302Z,23.50
2017-08-03T01:39:49.386Z,25.37
2017-08-03T01:42:17.472Z,24.53
2017-08-03T01:44:45.545Z,21.10
2017-08-03T01:47:13.623Z,22.53
2017-08-03T01:49:41.696Z,22.50
2017-08-03T01:52:09.766Z,25.57
2017-08-03T01:54:37.841Z,26.03
2017-08-03T01:57:05.911Z,24.13
2017-08-03T01:59:33.987Z,23.40
2017-08-03T02:02:02.076Z,20.73
2017-08-03T02:04:30.109Z,20.60
2017-08-03T02:06:58.220Z,20.57
2017-08-03T02:09:26.296Z,20.20
2017-08-03T02:11:54.351Z,23.10
2017-08-03T02:14:22.423Z,23.43
2017-08-03T02:16:50.533Z,22.37
2017-08-03T02:19:18.599Z,22.37
2017-08-03T02:21:47.427Z,23.17
2017-08-03T02:24:15.490Z,21.17
2017-08-03T02:26:43.575Z,20.13
2017-08-03T02:29:12.292Z,20.60
2017-08-03T02:31:40.375Z,17.70
2017-08-03T02:34:08.438Z,19.23
2017-08-03T02:36:36.506Z,17.43
2017-08-03T02:39:04.581Z,17.93
2017-08-03T02:41:32.659Z,15.37
2017-08-03T02:44:01.494Z,14.80
2017-08-03T02:46:29.567Z,17.97
2017-08-03T02:48:57.650Z,17.20
2017-08-03T02:51:25.718Z,18.60
2017-08-03T02:53:53.798Z,16.80
2017-08-03T02:56:21.870Z,15.63
2017-08-03T02:58:49.951Z,18.33
2017-08-03T03:01:18.010Z,17.23
2017-08-03T03:03:46.072Z,18.20
2017-08-03T03:06:14.153Z,17.17
2017-08-03T03:08:42.216Z,16.10
2017-08-03T03:11:10.291Z,16.83
2017-08-03T03:13:38.380Z,17.27
2017-08-03T03:16:06.450Z,16.97
2017-08-03T03:18:34.518Z,15.53
2017-08-03T03:21:02.590Z,16.23
2017-08-03T03:23:30.663Z,16.30
2017-08-03T03:25:59.256Z,15.67
2017-08-03T03:28:27.313Z,15.60
2017-08-03T03:30:55.391Z,15.40
2017-08-03T03:33:23.460Z,15.60
2017-08-03T03:35:51.551Z,16.47
2017-08-03T03:38:19.614Z,16.70
2017-08-03T03:40:47.688Z,16.47
2017-08-03T03:43:15.771Z,16.80
2017-08-03T03:45:43.826Z,17.73
2017-08-03T03:48:11.888Z,17.87
2017-08-03T03:50:39.961Z,17.30
2017-08-03T03:53:08.051Z,18.87
2017-08-03T03:55:36.130Z,17.40
2017-08-03T03:58:04.205Z,21.77
2017-08-03T04:00:32.295Z,20.23
2017-08-03T04:03:01.127Z,19.33
2017-08-03T04:05:29.186Z,21.63
2017-08-03T04:07:57.258Z,23.40
2017-08-03T04:10:25.334Z,19.80
2017-08-03T04:12:53.414Z,18.90
2017-08-03T04:15:21.533Z,21.83
2017-08-03T04:17:49.563Z,19.53
2017-08-03T04:20:17.641Z,19.73
2017-08-03T04:22:45.718Z,19.77
2017-08-03T04:25:13.789Z,21.33
2017-08-03T04:27:41.859Z,19.97
2017-08-03T04:30:09.945Z,17.93
2017-08-03T04:32:37.999Z,18.30
2017-08-03T04:35:06.091Z,19.07
2017-08-03T04:37:34.162Z,17.37
2017-08-03T04:40:02.249Z,17.37
2017-08-03T04:42:30.318Z,16.60
2017-08-03T04:44:58.378Z,18.20
2017-08-03T04:47:26.458Z,18.23
2017-08-03T04:49:55.310Z,16.97
2017-08-03T04:52:23.386Z,13.90
2017-08-03T04:54:51.461Z,16.93
2017-08-03T04:57:19.537Z,16.40
2017-08-03T04:59:47.614Z,16.10
2017-08-03T05:02:15.695Z,16.30
2017-08-03T05:04:43.781Z,15.90
2017-08-03T05:07:12.611Z,15.67
2017-08-03T05:09:40.674Z,15.67
2017-08-03T05:12:08.792Z,16.00
2017-08-03T05:14:36.859Z,14.83
2017-08-03T05:17:04.930Z,14.10
2017-08-03T05:19:33.003Z,14.50
2017-08-03T05:22:01.125Z,13.80
2017-08-03T05:24:29.931Z,13.97
2017-08-03T05:26:58.031Z,13.10
2017-08-03T05:29:26.110Z,13.90
2017-08-03T05:31:54.171Z,14.70
2017-08-03T05:34:22.246Z,14.50
2017-08-03T05:36:50.306Z,13.70
2017-08-03T05:39:18.387Z,12.33
2017-08-03T05:41:46.528Z,13.53
2017-08-03T05:44:14.588Z,14.40
2017-08-03T05:46:42.654Z,12.40
2017-08-03T05:49:10.720Z,14.00
2017-08-03T05:51:38.807Z,12.53
2017-08-03T05:54:06.878Z,12.70
2017-08-03T05:56:34.957Z,13.27
2017-08-03T05:59:03.805Z,12.70
2017-08-03T06:01:31.875Z,13.00
2017-08-03T06:03:59.954Z,13.50
2017-08-03T06:06:28.017Z,13.10
2017-08-03T06:08:56.062Z,13.20
2017-08-03T06:11:25.090Z,13.00
2017-08-03T06:13:53.155Z,13.27
2017-08-03T06:16:21.228Z,13.73
2017-08-03T06:18:49.291Z,13.00
2017-08-03T06:21:17.366Z,13.13
2017-08-03T06:23:45.446Z,13.17
2017-08-03T06:26:13.541Z,12.87
2017-08-03T06:28:41.611Z,14.20
2017-08-03T06:31:09.675Z,16.07
2017-08-03T06:33:37.747Z,13.90
2017-08-03T06:36:05.803Z,14.60
2017-08-03T06:38:33.890Z,13.67
2017-08-03T06:41:01.962Z,13.40
2017-08-03T06:43:30.032Z,13.53
2017-08-03T06:45:58.117Z,12.90
2017-08-03T06:48:26.182Z,13.20
2017-08-03T06:50:54.257Z,13.10
2017-08-03T06:53:23.103Z,12.10
2017-08-03T06:55:51.173Z,12.13
2017-08-03T06:58:19.306Z,12.40
2017-08-03T07:00:47.387Z,12.07
2017-08-03T07:03:15.443Z,12.37
2017-08-03T07:05:43.498Z,11.67
2017-08-03T07:08:11.582Z,13.20
2017-08-03T07:10:39.642Z,11.90
2017-08-03T07:13:07.728Z,13.30
2017-08-03T07:15:35.847Z,13.03
2017-08-03T07:18:04.774Z,13.67
2017-08-03T07:20:32.855Z,13.23
2017-08-03T07:23:00.924Z,13.20
2017-08-03T07:25:29.007Z,13.37
2017-08-03T07:27:57.077Z,12.60
2017-08-03T07:30:25.147Z,11.70
2017-08-03T07:32:53.219Z,10.87
2017-08-03T07:35:21.432Z,12.63
2017-08-03T07:37:50.254Z,12.93
2017-08-03T07:40:19.057Z,12.13
2017-08-03T07:42:47.145Z,11.47
2017-08-03T07:45:15.215Z,11.20
2017-08-03T07:47:43.310Z,10.73
2017-08-03T07:50:11.388Z,11.50
2017-08-03T07:52:40.244Z,10.43
2017-08-03T07:55:08.320Z,11.10
2017-08-03T07:57:36.384Z,10.87
2017-08-03T08:00:04.464Z,10.53
2017-08-03T08:02:32.547Z,10.20
2017-08-03T08:05:00.631Z,11.13
2017-08-03T08:07:29.454Z,8.57
2017-08-03T08:09:57.556Z,7.53
2017-08-03T08:12:26.240Z,8.50
2017-08-03T08:14:54.282Z,8.37
2017-08-03T08:17:22.350Z,6.47
2017-08-03T08:19:50.404Z,7.00
2017-08-03T08:22:19.242Z,6.50
2017-08-03T08:24:47.310Z,6.90
2017-08-03T08:27:15.386Z,6.50
2017-08-03T08:29:43.454Z,7.10
2017-08-03T08:32:11.522Z,6.93
2017-08-03T08:34:39.598Z,6.00
2017-08-03T08:37:07.669Z,6.13
2017-08-03T08:39:35.749Z,6.60
2017-08-03T08:42:03.798Z,6.20
2017-08-03T08:44:31.899Z,6.90
2017-08-03T08:46:59.966Z,5.60
2017-08-03T08:49:28.018Z,6.23
2017-08-03T08:51:56.099Z,6.00
2017-08-03T08:54:24.154Z,5.67
2017-08-03T08:56:52.236Z,5.83
2017-08-03T08:59:20.297Z,5.80
2017-08-03T09:01:48.374Z,6.00
2017-08-03T09:04:16.424Z,6.77
2017-08-03T09:06:44.506Z,5.50
2017-08-03T09:09:12.557Z,6.27
2017-08-03T09:11:40.607Z,5.53
2017-08-03T09:14:09.446Z,4.70
2017-08-03T09:16:37.494Z,4.63
2017-08-03T09:19:05.580Z,4.40
2017-08-03T09:21:33.648Z,4.50
2017-08-03T09:24:01.714Z,4.27
2017-08-03T09:26:29.782Z,4.73
2017-08-03T09:28:57.862Z,3.90
2017-08-03T09:31:25.941Z,4.60
2017-08-03T09:33:54.001Z,4.83
2017-08-03T09:36:22.082Z,4.80
2017-08-03T09:38:50.140Z,4.53
2017-08-03T09:41:18.304Z,4.60
2017-08-03T09:43:47.108Z,4.50
2017-08-03T09:46:15.206Z,4.70
2017-08-03T09:48:43.287Z,3.50
2017-08-03T09:51:11.356Z,4.50
2017-08-03T09:53:39.414Z,4.10
2017-08-03T09:56:07.553Z,3.30
2017-08-03T09:58:35.613Z,3.23
2017-08-03T10:01:03.686Z,3.80
2017-08-03T10:03:31.757Z,3.10
2017-08-03T10:05:59.817Z,3.23
2017-08-03T10:08:27.892Z,3.57
2017-08-03T10:10:55.945Z,4.17
2017-08-03T10:13:24.068Z,3.63
2017-08-03T10:15:52.112Z,3.17
2017-08-03T10:18:20.178Z,3.37
2017-08-03T10:20:48.253Z,3.90
2017-08-03T10:23:16.322Z,3.73
2017-08-03T10:25:44.399Z,3.90
2017-08-03T10:28:12.454Z,3.70
2017-08-03T10:30:40.534Z,3.77
2017-08-03T10:33:08.595Z,3.50
2017-08-03T10:35:36.647Z,3.90
2017-08-03T10:38:04.706Z,4.40
2017-08-03T10:40:33.554Z,4.13
2017-08-03T10:43:01.630Z,4.17
2017-08-03T10:45:29.700Z,4.27
2017-08-03T10:47:57.778Z,4.37
2017-08-03T10:50:25.888Z,3.90
2017-08-03T10:52:54.700Z,4.30
2017-08-03T10:55:22.791Z,4.17
2017-08-03T10:57:50.870Z,3.80
2017-08-03T11:00:18.984Z,3.93
2017-08-03T11:02:47.771Z,3.90
2017-08-03T11:05:15.821Z,4.77
2017-08-03T11:07:43.905Z,4.27
2017-08-03T11:10:11.950Z,4.50
2017-08-03T11:12:40.799Z,4.47
2017-08-03T11:15:08.854Z,4.27
2017-08-03T11:17:36.926Z,4.67
2017-08-03T11:20:05.003Z,4.63
2017-08-03T11:22:33.073Z,4.53
2017-08-03T11:25:01.141Z,4.23
2017-08-03T11:27:29.207Z,4.53
2017-08-03T11:29:57.307Z,4.43
2017-08-03T11:32:25.414Z,5.20
2017-08-03T11:34:53.476Z,4.80
2017-08-03T11:37:21.556Z,4.50
2017-08-03T11:39:50.374Z,4.60
2017-08-03T11:42:18.440Z,4.20
2017-08-03T11:44:46.513Z,3.90
2017-08-03T11:47:14.590Z,4.07
2017-08-03T11:49:42.662Z,3.90
2017-08-03T11:52:10.731Z,3.90
2017-08-03T11:54:38.817Z,4.00
2017-08-03T11:57:06.883Z,3.70
2017-08-03T11:59:34.995Z,3.90
2017-08-03T12:02:03.812Z,3.53
2017-08-03T12:04:31.874Z,4.13
2017-08-03T12:06:59.942Z,2.70
2017-08-03T12:09:27.992Z,3.20
2017-08-03T12:11:56.818Z,3.70
2017-08-03T12:14:24.878Z,3.10
2017-08-03T12:16:52.958Z,3.10
2017-08-03T12:19:21.027Z,3.00
2017-08-03T12:21:49.090Z,3.47
2017-08-03T12:24:17.144Z,3.33
2017-08-03T12:26:45.226Z,3.60
2017-08-03T12:29:13.278Z,3.27
2017-08-03T12:31:42.135Z,3.10
2017-08-03T12:34:10.221Z,3.00
2017-08-03T12:36:39.054Z,2.80
2017-08-03T12:39:07.120Z,2.47
2017-08-03T12:41:35.176Z,2.83
2017-08-03T12:44:04.003Z,3.03
2017-08-03T12:46:32.068Z,2.33
2017-08-03T12:49:00.137Z,2.67
2017-08-03T12:51:28.199Z,2.23
2017-08-03T12:53:56.278Z,2.33
2017-08-03T12:56:24.338Z,2.40
2017-08-03T12:58:52.438Z,2.33
2017-08-03T13:01:20.512Z,2.40
2017-08-03T13:03:48.587Z,2.10
2017-08-03T13:06:17.409Z,3.07
2017-08-03T13:08:45.489Z,2.17
2017-08-03T13:11:13.574Z,2.27
2017-08-03T13:13:41.670Z,2.83
2017-08-03T13:16:09.742Z,2.00
2017-08-03T13:18:37.813Z,2.77
2017-08-03T13:21:06.704Z,2.30
2017-08-03T13:23:34.803Z,2.07
2017-08-03T13:26:03.641Z,2.00
2017-08-03T13:28:31.708Z,1.50
2017-08-03T13:30:59.740Z,1.83
2017-08-03T13:33:28.572Z,1.50
